createdAt,value
2023-05-09T00:01:11.388Z,13.00
2023-05-09T00:03:38.519Z,13.00
2023-05-09T00:06:06.726Z,13.00
2023-05-09T00:08:33.627Z,13.00
2023-05-09T00:11:01.871Z,13.00
2023-05-09T00:13:28.772Z,13.00
2023-05-09T00:15:57.201Z,13.00
2023-05-09T00:18:24.128Z,13.00
2023-05-09T00:20:51.044Z,12.90
2023-05-09T00:23:17.847Z,12.90
2023-05-09T00:25:44.639Z,12.90
2023-05-09T00:28:11.563Z,13.00
2023-05-09T00:30:38.324Z,13.00
2023-05-09T00:33:05.283Z,13.00
2023-05-09T00:35:32.363Z,13.00
2023-05-09T00:37:59.612Z,13.00
2023-05-09T00:40:26.466Z,13.00
2023-05-09T00:42:53.255Z,13.10
2023-05-09T00:45:20.048Z,13.10
2023-05-09T00:47:46.886Z,13.10
2023-05-09T00:50:13.836Z,13.10
2023-05-09T00:52:41.490Z,13.10
2023-05-09T00:55:08.947Z,13.10
2023-05-09T00:57:36.326Z,13.10
2023-05-09T01:00:11.224Z,13.10
2023-05-09T01:02:38.421Z,13.10
2023-05-09T01:05:06.863Z,13.00
2023-05-09T01:07:54.526Z,13.10
2023-05-09T01:10:36.050Z,13.10
2023-05-09T01:13:34.586Z,13.10
2023-05-09T01:16:21.832Z,13.10
2023-05-09T01:19:18.580Z,13.20
2023-05-09T01:21:49.537Z,13.20
2023-05-09T01:24:34.310Z,13.20
2023-05-09T01:27:38.172Z,13.20
2023-05-09T01:30:15.020Z,13.20
2023-05-09T01:32:43.821Z,13.20
2023-05-09T01:35:14.543Z,13.30
2023-05-09T01:37:43.647Z,13.20
2023-05-09T01:40:20.697Z,13.20
2023-05-09T01:43:08.327Z,13.20
2023-05-09T01:45:36.805Z,13.20
2023-05-09T01:48:05.882Z,13.20
2023-05-09T01:50:35.474Z,13.20
2023-05-09T01:53:03.170Z,13.10
2023-05-09T01:55:36.795Z,13.10
2023-05-09T01:58:08.134Z,13.10
2023-05-09T02:00:35.378Z,13.00
2023-05-09T02:03:04.100Z,12.90
2023-05-09T02:05:32.381Z,12.90
2023-05-09T02:07:59.702Z,12.80
2023-05-09T02:10:28.669Z,12.70
2023-05-09T02:12:56.256Z,12.60
2023-05-09T02:15:24.332Z,12.60
2023-05-09T02:17:51.284Z,12.50
2023-05-09T02:20:18.460Z,12.40
2023-05-09T02:22:45.799Z,12.30
2023-05-09T02:25:16.828Z,12.30
2023-05-09T02:27:46.700Z,12.20
2023-05-09T02:30:23.324Z,12.20
2023-05-09T02:32:58.633Z,12.20
2023-05-09T02:35:27.813Z,12.10
2023-05-09T02:37:56.035Z,12.00
2023-05-09T02:40:23.462Z,12.00
2023-05-09T02:42:51.272Z,11.90
2023-05-09T02:45:18.080Z,11.90
2023-05-09T02:47:44.861Z,11.90
2023-05-09T02:50:11.929Z,11.80
2023-05-09T02:52:38.695Z,11.70
2023-05-09T02:55:07.316Z,11.70
2023-05-09T02:57:34.146Z,11.60
2023-05-09T03:00:00.965Z,11.60
2023-05-09T03:02:27.768Z,11.60
2023-05-09T03:04:54.571Z,11.60
2023-05-09T03:07:21.323Z,11.50
2023-05-09T03:09:48.020Z,11.50
2023-05-09T03:12:14.758Z,11.40
2023-05-09T03:14:41.488Z,11.40
2023-05-09T03:17:08.287Z,11.40
2023-05-09T03:19:35.004Z,11.40
2023-05-09T03:22:01.736Z,11.40
2023-05-09T03:24:28.508Z,11.30
2023-05-09T03:26:55.303Z,11.30
2023-05-09T03:29:22.059Z,11.30
2023-05-09T03:31:48.945Z,11.30
2023-05-09T03:34:15.845Z,11.30
2023-05-09T03:36:43.585Z,11.20
2023-05-09T03:39:10.935Z,11.30
2023-05-09T03:41:37.712Z,11.30
2023-05-09T03:44:05.638Z,11.30
2023-05-09T03:46:32.357Z,11.30
2023-05-09T03:48:59.114Z,11.40
2023-05-09T03:51:26.336Z,11.40
2023-05-09T03:53:53.126Z,11.40
2023-05-09T03:56:19.815Z,11.50
2023-05-09T03:58:46.584Z,11.50
2023-05-09T04:01:13.339Z,11.50
2023-05-09T04:03:41.170Z,11.60
2023-05-09T04:06:08.070Z,11.60
2023-05-09T04:08:34.917Z,11.60
2023-05-09T04:11:01.635Z,11.80
2023-05-09T04:13:29.984Z,11.80
2023-05-09T04:15:59.749Z,11.90
2023-05-09T04:18:26.482Z,12.00
2023-05-09T04:20:53.545Z,12.00
2023-05-09T04:23:20.548Z,12.10
2023-05-09T04:25:47.538Z,12.20
2023-05-09T04:28:14.246Z,12.20
2023-05-09T04:30:40.963Z,12.30
2023-05-09T04:33:07.848Z,12.40
2023-05-09T04:35:34.683Z,12.40
2023-05-09T04:38:01.382Z,12.50
2023-05-09T04:40:29.398Z,12.60
2023-05-09T04:42:57.235Z,12.70
2023-05-09T04:45:23.980Z,12.80
2023-05-09T04:47:50.785Z,12.80
2023-05-09T04:50:17.555Z,12.90
2023-05-09T04:52:44.344Z,13.00
2023-05-09T04:55:11.187Z,13.10
2023-05-09T04:57:38.007Z,13.10
2023-05-09T05:00:07.592Z,13.20
2023-05-09T05:02:34.450Z,13.30
2023-05-09T05:05:17.522Z,13.20
2023-05-09T05:07:44.637Z,13.20
2023-05-09T05:10:11.396Z,13.20
2023-05-09T05:12:38.249Z,13.20
2023-05-09T05:15:05.724Z,13.30
2023-05-09T05:17:32.857Z,13.30
2023-05-09T05:19:59.566Z,13.40
2023-05-09T05:22:26.298Z,13.50
2023-05-09T05:24:53.016Z,13.70
2023-05-09T05:27:19.896Z,13.80
2023-05-09T05:29:46.633Z,13.90
2023-05-09T05:32:13.439Z,13.90
2023-05-09T05:34:40.200Z,14.00
2023-05-09T05:37:07.003Z,14.00
2023-05-09T05:39:33.738Z,14.20
2023-05-09T05:42:00.429Z,14.20
2023-05-09T05:44:27.162Z,14.40
2023-05-09T05:46:53.925Z,14.40
2023-05-09T05:49:20.856Z,14.50
2023-05-09T05:51:47.589Z,14.60
2023-05-09T05:54:14.345Z,14.70
2023-05-09T05:56:41.078Z,14.80
2023-05-09T05:59:07.775Z,14.80
2023-05-09T06:01:34.789Z,14.90
2023-05-09T06:04:01.819Z,14.90
2023-05-09T06:06:28.723Z,15.00
2023-05-09T06:08:55.439Z,15.00
2023-05-09T06:11:23.245Z,15.10
2023-05-09T06:13:49.973Z,15.10
2023-05-09T06:16:19.850Z,15.20
2023-05-09T06:18:47.908Z,15.30
2023-05-09T06:21:14.678Z,15.40
2023-05-09T06:23:57.066Z,15.40
2023-05-09T06:26:28.200Z,15.50
2023-05-09T06:28:54.981Z,15.50
2023-05-09T06:31:22.170Z,15.60
2023-05-09T06:33:49.786Z,15.70
2023-05-09T06:36:16.611Z,15.70
2023-05-09T06:38:43.304Z,15.80
2023-05-09T06:41:10.044Z,15.80
2023-05-09T06:43:36.793Z,15.80
2023-05-09T06:46:04.411Z,15.90
2023-05-09T06:48:31.275Z,15.90
2023-05-09T06:50:58.012Z,15.90
2023-05-09T06:53:24.750Z,15.90
2023-05-09T06:55:51.547Z,16.10
2023-05-09T06:58:18.281Z,16.20
2023-05-09T07:00:45.016Z,16.30
2023-05-09T07:03:11.893Z,16.40
2023-05-09T07:05:38.790Z,16.40
2023-05-09T07:08:05.603Z,16.50
2023-05-09T07:10:32.575Z,16.50
2023-05-09T07:12:59.314Z,16.70
2023-05-09T07:15:39.773Z,16.80
2023-05-09T07:18:08.047Z,16.90
2023-05-09T07:20:34.840Z,17.10
2023-05-09T07:23:03.898Z,17.30
2023-05-09T07:25:30.705Z,17.30
2023-05-09T07:27:58.315Z,17.30
2023-05-09T07:30:25.328Z,17.30
2023-05-09T07:32:52.411Z,17.30
2023-05-09T07:35:20.409Z,17.20
2023-05-09T07:37:47.137Z,17.10
2023-05-09T07:40:14.731Z,17.20
2023-05-09T07:42:47.236Z,17.10
2023-05-09T07:45:14.190Z,16.90
2023-05-09T07:47:41.164Z,16.80
2023-05-09T07:50:08.413Z,16.70
2023-05-09T07:52:35.160Z,16.70
2023-05-09T07:55:01.925Z,16.60
2023-05-09T07:57:28.706Z,16.60
2023-05-09T07:59:55.629Z,16.50
2023-05-09T08:02:22.435Z,16.40
2023-05-09T08:04:49.302Z,16.50
2023-05-09T08:07:16.082Z,16.50
2023-05-09T08:09:42.885Z,16.60
2023-05-09T08:12:09.746Z,16.50
2023-05-09T08:14:36.584Z,16.50
2023-05-09T08:17:03.303Z,16.40
2023-05-09T08:19:30.096Z,16.50
2023-05-09T08:21:56.826Z,16.40
2023-05-09T08:24:23.556Z,16.40
2023-05-09T08:26:50.305Z,16.30
2023-05-09T08:29:17.683Z,16.30
2023-05-09T08:31:44.671Z,16.40
2023-05-09T08:34:11.468Z,16.40
2023-05-09T08:36:39.345Z,16.30
2023-05-09T08:39:06.089Z,16.30
2023-05-09T08:41:35.969Z,16.20
2023-05-09T08:44:03.349Z,16.10
2023-05-09T08:46:37.209Z,16.10
2023-05-09T08:49:07.148Z,16.20
2023-05-09T08:51:36.015Z,16.30
2023-05-09T08:54:03.490Z,16.60
2023-05-09T08:56:31.451Z,16.90
2023-05-09T08:58:58.872Z,17.20
2023-05-09T09:01:26.808Z,17.50
2023-05-09T09:03:53.951Z,17.80
2023-05-09T09:06:22.439Z,18.10
2023-05-09T09:08:50.402Z,18.40
2023-05-09T09:11:18.571Z,18.60
2023-05-09T09:13:46.836Z,18.80
2023-05-09T09:16:22.169Z,18.80
2023-05-09T09:18:52.558Z,18.80
2023-05-09T09:21:20.692Z,18.60
2023-05-09T09:23:49.136Z,18.40
2023-05-09T09:26:16.541Z,18.40
2023-05-09T09:28:43.454Z,18.30
2023-05-09T09:31:25.314Z,18.30
2023-05-09T09:33:52.186Z,18.20
2023-05-09T09:36:36.643Z,18.20
2023-05-09T09:39:05.559Z,18.30
2023-05-09T09:41:37.601Z,18.40
2023-05-09T09:44:23.259Z,18.60
2023-05-09T09:46:58.871Z,18.70
2023-05-09T09:49:26.976Z,18.60
2023-05-09T09:51:56.418Z,18.70
2023-05-09T09:54:26.791Z,18.70
2023-05-09T09:56:54.687Z,18.90
2023-05-09T09:59:24.912Z,19.20
2023-05-09T10:02:07.049Z,19.30
2023-05-09T10:04:37.806Z,19.50
2023-05-09T10:07:07.554Z,19.50
2023-05-09T10:09:36.243Z,19.70
2023-05-09T10:12:06.165Z,19.70
2023-05-09T10:14:35.752Z,19.70
2023-05-09T10:17:04.905Z,19.70
2023-05-09T10:19:32.970Z,19.80
2023-05-09T10:22:06.402Z,19.60
2023-05-09T10:25:06.651Z,19.80
2023-05-09T10:27:36.409Z,19.90
2023-05-09T10:30:19.886Z,20.00
2023-05-09T10:33:04.578Z,20.30
2023-05-09T10:35:36.591Z,20.50
2023-05-09T10:38:03.637Z,20.60
2023-05-09T10:40:32.292Z,20.90
2023-05-09T10:42:59.004Z,21.30
2023-05-09T10:45:26.447Z,21.30
2023-05-09T10:47:56.420Z,21.30
2023-05-09T10:50:24.106Z,21.30
2023-05-09T10:53:08.460Z,21.40
2023-05-09T10:56:01.825Z,21.50
2023-05-09T10:58:33.769Z,21.30
2023-05-09T11:01:03.829Z,21.30
2023-05-09T11:03:58.445Z,21.30
2023-05-09T11:06:50.969Z,21.40
2023-05-09T11:09:35.288Z,21.30
2023-05-09T11:12:09.839Z,21.20
2023-05-09T11:14:39.510Z,21.00
2023-05-09T11:17:14.054Z,21.00
2023-05-09T11:19:46.482Z,20.80
2023-05-09T11:22:20.529Z,20.60
2023-05-09T11:24:51.271Z,20.40
2023-05-09T11:27:28.437Z,20.60
2023-05-09T11:29:59.899Z,20.90
2023-05-09T11:32:34.718Z,21.50
2023-05-09T11:35:17.212Z,22.10
2023-05-09T11:37:50.907Z,22.40
2023-05-09T11:40:19.739Z,22.80
2023-05-09T11:42:56.196Z,23.40
2023-05-09T11:45:30.616Z,23.70
2023-05-09T11:47:57.930Z,24.10
2023-05-09T11:50:25.183Z,24.60
2023-05-09T11:52:54.428Z,24.70
2023-05-09T11:55:22.883Z,24.50
2023-05-09T11:57:53.310Z,23.90
2023-05-09T12:00:25.438Z,23.40
2023-05-09T12:02:53.739Z,22.70
2023-05-09T12:05:22.986Z,22.60
2023-05-09T12:07:50.974Z,22.60
2023-05-09T12:10:25.379Z,22.60
2023-05-09T12:12:55.946Z,22.40
2023-05-09T12:15:23.272Z,22.20
2023-05-09T12:18:05.106Z,22.10
2023-05-09T12:20:51.462Z,21.80
2023-05-09T12:23:19.610Z,21.90
2023-05-09T12:25:54.468Z,22.00
2023-05-09T12:28:26.287Z,22.20
2023-05-09T12:30:54.429Z,22.60
2023-05-09T12:33:22.542Z,22.70
2023-05-09T12:36:09.694Z,23.10
2023-05-09T12:38:37.273Z,23.30
2023-05-09T12:41:21.819Z,23.50
2023-05-09T12:43:57.032Z,23.80
2023-05-09T12:46:24.164Z,23.50
2023-05-09T12:48:51.599Z,23.30
2023-05-09T12:51:21.300Z,23.20
2023-05-09T12:53:48.441Z,23.10
2023-05-09T12:56:20.146Z,23.00
2023-05-09T12:58:56.090Z,22.90
2023-05-09T13:01:28.144Z,22.70
2023-05-09T13:04:06.572Z,22.30
2023-05-09T13:06:34.737Z,22.20
2023-05-09T13:09:05.818Z,22.60
2023-05-09T13:11:32.598Z,23.20
2023-05-09T13:13:59.498Z,23.80
2023-05-09T13:16:26.801Z,24.60
2023-05-09T13:18:53.544Z,25.10
2023-05-09T13:21:20.913Z,25.40
2023-05-09T13:23:49.904Z,25.50
2023-05-09T13:26:16.738Z,25.70
2023-05-09T13:28:43.488Z,25.40
2023-05-09T13:31:10.572Z,25.10
2023-05-09T13:33:37.573Z,25.40
2023-05-09T13:36:04.687Z,25.20
2023-05-09T13:38:32.154Z,24.40
2023-05-09T13:40:59.763Z,23.80
2023-05-09T13:43:27.279Z,23.40
2023-05-09T13:45:54.060Z,23.00
2023-05-09T13:48:20.855Z,22.60
2023-05-09T13:50:47.644Z,22.30
2023-05-09T13:53:14.352Z,21.90
2023-05-09T13:55:41.112Z,21.50
2023-05-09T13:58:08.911Z,21.20
2023-05-09T14:00:35.761Z,21.00
2023-05-09T14:03:03.196Z,20.90
2023-05-09T14:05:32.095Z,20.70
2023-05-09T14:07:58.905Z,20.60
2023-05-09T14:10:26.980Z,20.50
2023-05-09T14:12:54.910Z,20.40
2023-05-09T14:15:21.703Z,20.40
2023-05-09T14:17:48.495Z,20.40
2023-05-09T14:20:17.874Z,20.40
2023-05-09T14:22:44.868Z,20.30
2023-05-09T14:25:12.402Z,20.40
2023-05-09T14:27:39.189Z,20.40
2023-05-09T14:30:06.791Z,20.80
2023-05-09T14:32:33.516Z,20.90
2023-05-09T14:35:00.299Z,21.20
2023-05-09T14:37:27.132Z,21.30
2023-05-09T14:39:55.345Z,21.40
2023-05-09T14:42:22.128Z,21.50
2023-05-09T14:44:48.940Z,21.40
2023-05-09T14:47:16.778Z,21.40
2023-05-09T14:49:44.134Z,21.20
2023-05-09T14:52:10.925Z,21.00
2023-05-09T14:54:37.745Z,20.90
2023-05-09T14:57:05.340Z,20.70
2023-05-09T14:59:33.676Z,20.50
2023-05-09T15:02:02.150Z,20.40
2023-05-09T15:04:30.953Z,20.30
2023-05-09T15:06:58.791Z,20.30
2023-05-09T15:09:25.657Z,20.30
2023-05-09T15:11:52.390Z,20.30
2023-05-09T15:14:19.135Z,20.20
2023-05-09T15:16:46.390Z,20.10
2023-05-09T15:19:13.203Z,20.00
2023-05-09T15:21:40.000Z,19.90
2023-05-09T15:24:07.418Z,19.80
2023-05-09T15:26:34.432Z,19.70
2023-05-09T15:29:01.569Z,19.60
2023-05-09T15:31:33.562Z,19.50
2023-05-09T15:34:01.914Z,19.40
2023-05-09T15:36:29.892Z,19.30
2023-05-09T15:38:56.639Z,19.10
2023-05-09T15:41:23.353Z,19.00
2023-05-09T15:43:50.176Z,18.90
2023-05-09T15:46:17.131Z,18.80
2023-05-09T15:48:44.018Z,18.80
2023-05-09T15:51:11.251Z,18.60
2023-05-09T15:53:38.009Z,18.40
2023-05-09T15:56:04.981Z,18.20
2023-05-09T15:58:38.041Z,18.00
2023-05-09T16:01:06.041Z,17.80
2023-05-09T16:03:33.201Z,17.60
2023-05-09T16:06:00.280Z,17.70
2023-05-09T16:08:27.390Z,17.70
2023-05-09T16:10:54.100Z,17.60
2023-05-09T16:13:21.546Z,17.60
2023-05-09T16:15:49.976Z,17.60
2023-05-09T16:18:16.945Z,17.50
2023-05-09T16:20:43.925Z,17.60
2023-05-09T16:23:11.515Z,17.50
2023-05-09T16:25:38.402Z,17.50
2023-05-09T16:28:07.089Z,17.50
2023-05-09T16:30:34.197Z,17.70
2023-05-09T16:33:00.961Z,17.80
2023-05-09T16:35:27.849Z,17.70
2023-05-09T16:37:54.596Z,17.70
2023-05-09T16:40:22.544Z,17.60
2023-05-09T16:42:52.512Z,17.50
2023-05-09T16:45:20.477Z,17.40
2023-05-09T16:47:47.409Z,17.40
2023-05-09T16:50:14.311Z,17.40
2023-05-09T16:52:42.384Z,17.30
2023-05-09T16:55:09.225Z,17.30
2023-05-09T16:57:35.986Z,17.20
2023-05-09T17:00:02.995Z,17.20
2023-05-09T17:02:29.814Z,17.10
2023-05-09T17:04:56.900Z,17.00
2023-05-09T17:07:26.072Z,16.90
2023-05-09T17:09:52.822Z,16.80
2023-05-09T17:12:19.571Z,16.70
2023-05-09T17:14:47.802Z,16.70
2023-05-09T17:17:17.429Z,16.60
2023-05-09T17:19:44.331Z,16.50
2023-05-09T17:22:11.323Z,16.50
2023-05-09T17:24:38.120Z,16.50
2023-05-09T17:27:05.296Z,16.40
2023-05-09T17:29:32.161Z,16.40
2023-05-09T17:32:00.642Z,16.40
2023-05-09T17:34:28.749Z,16.40
2023-05-09T17:36:56.804Z,16.40
2023-05-09T17:39:25.010Z,16.30
2023-05-09T17:41:51.749Z,16.20
2023-05-09T17:44:24.218Z,16.20
2023-05-09T17:46:51.177Z,16.30
2023-05-09T17:49:21.045Z,16.20
2023-05-09T17:51:47.760Z,16.20
2023-05-09T17:54:15.663Z,16.10
2023-05-09T17:56:42.424Z,16.00
2023-05-09T17:59:09.160Z,15.90
2023-05-09T18:01:35.986Z,15.80
2023-05-09T18:04:02.928Z,15.70
2023-05-09T18:06:29.753Z,15.70
2023-05-09T18:08:56.533Z,15.60
2023-05-09T18:11:24.474Z,15.60
2023-05-09T18:13:51.275Z,15.60
2023-05-09T18:16:18.043Z,15.50
2023-05-09T18:18:44.957Z,15.40
2023-05-09T18:21:11.775Z,15.40
2023-05-09T18:23:38.608Z,15.30
2023-05-09T18:26:05.417Z,15.30
2023-05-09T18:28:41.269Z,15.40
2023-05-09T18:31:09.444Z,15.40
2023-05-09T18:33:38.285Z,15.40
2023-05-09T18:36:10.191Z,15.30
2023-05-09T18:38:38.867Z,15.20
2023-05-09T18:41:10.939Z,15.30
2023-05-09T18:43:45.894Z,15.30
2023-05-09T18:46:22.599Z,15.30
2023-05-09T18:48:53.496Z,15.40
2023-05-09T18:51:20.525Z,15.20
2023-05-09T18:53:47.672Z,15.20
2023-05-09T18:56:15.824Z,15.00
2023-05-09T18:58:42.661Z,14.90
2023-05-09T19:01:11.432Z,14.70
2023-05-09T19:03:46.013Z,14.60
2023-05-09T19:06:14.270Z,14.50
2023-05-09T19:08:42.703Z,14.50
2023-05-09T19:11:11.465Z,14.40
2023-05-09T19:13:40.929Z,14.30
2023-05-09T19:16:12.909Z,14.30
2023-05-09T19:18:39.668Z,14.20
2023-05-09T19:21:06.458Z,14.10
2023-05-09T19:23:33.417Z,14.20
2023-05-09T19:26:03.131Z,14.10
2023-05-09T19:28:30.111Z,14.10
2023-05-09T19:30:57.405Z,14.20
2023-05-09T19:33:24.969Z,14.10
2023-05-09T19:35:51.796Z,14.10
2023-05-09T19:38:19.492Z,14.00
2023-05-09T19:40:46.254Z,14.00
2023-05-09T19:43:12.989Z,14.00
2023-05-09T19:45:40.521Z,14.00
2023-05-09T19:48:07.444Z,14.00
2023-05-09T19:50:34.260Z,14.00
2023-05-09T19:53:01.017Z,14.00
2023-05-09T19:55:29.142Z,14.00
2023-05-09T19:57:55.978Z,14.00
2023-05-09T20:00:22.804Z,14.10
2023-05-09T20:02:50.920Z,14.00
2023-05-09T20:05:17.953Z,14.10
2023-05-09T20:07:44.697Z,14.10
2023-05-09T20:10:15.361Z,14.10
2023-05-09T20:12:42.342Z,14.00
2023-05-09T20:15:09.445Z,14.00
2023-05-09T20:17:37.391Z,14.00
2023-05-09T20:20:04.630Z,14.00
2023-05-09T20:22:31.349Z,14.00
2023-05-09T20:24:58.146Z,14.00
2023-05-09T20:27:24.902Z,14.00
2023-05-09T20:29:51.693Z,14.10
2023-05-09T20:32:18.449Z,14.10
2023-05-09T20:34:45.437Z,14.00
2023-05-09T20:37:12.306Z,14.00
2023-05-09T20:39:39.081Z,14.00
2023-05-09T20:42:06.488Z,13.90
2023-05-09T20:44:33.590Z,13.90
2023-05-09T20:47:00.349Z,13.90
2023-05-09T20:49:27.125Z,13.90
2023-05-09T20:51:55.100Z,13.90
2023-05-09T20:54:23.824Z,14.00
2023-05-09T20:56:50.840Z,14.00
2023-05-09T20:59:17.822Z,13.90
2023-05-09T21:01:44.751Z,13.90
2023-05-09T21:04:11.547Z,13.90
2023-05-09T21:06:38.683Z,13.90
2023-05-09T21:09:06.168Z,13.90
2023-05-09T21:11:32.911Z,13.90
2023-05-09T21:13:59.598Z,13.90
2023-05-09T21:16:26.400Z,13.90
2023-05-09T21:18:53.163Z,13.90
2023-05-09T21:21:19.870Z,13.90
2023-05-09T21:23:46.570Z,13.90
2023-05-09T21:26:13.298Z,13.90
2023-05-09T21:28:40.048Z,13.80
2023-05-09T21:33:33.501Z,13.90
2023-05-09T21:36:00.382Z,13.90
2023-05-09T21:38:27.116Z,13.90
2023-05-09T21:40:53.913Z,13.90
2023-05-09T21:43:20.690Z,13.80
2023-05-09T21:45:47.426Z,13.80
2023-05-09T21:48:14.193Z,13.80
2023-05-09T21:50:43.868Z,13.80
2023-05-09T21:53:25.776Z,13.90
2023-05-09T21:55:56.943Z,13.80
2023-05-09T21:58:40.093Z,13.80
2023-05-09T22:01:07.015Z,13.80
2023-05-09T22:03:34.120Z,13.80
2023-05-09T22:06:00.922Z,13.80
2023-05-09T22:08:27.654Z,13.70
2023-05-09T22:10:54.363Z,13.70
2023-05-09T22:13:21.331Z,13.60
2023-05-09T22:15:48.057Z,13.60
2023-05-09T22:18:16.820Z,13.50
2023-05-09T22:20:43.523Z,13.60
2023-05-09T22:23:10.279Z,13.50
2023-05-09T22:25:37.045Z,13.50
2023-05-09T22:28:06.921Z,13.50
2023-05-09T22:30:33.653Z,13.60
2023-05-09T22:33:00.866Z,13.50
2023-05-09T22:35:27.744Z,13.50
2023-05-09T22:37:54.445Z,13.50
2023-05-09T22:40:21.183Z,13.40
2023-05-09T22:42:47.929Z,13.50
2023-05-09T22:45:14.933Z,13.50
2023-05-09T22:47:41.709Z,13.50
2023-05-09T22:50:09.188Z,13.50
2023-05-09T22:52:35.880Z,13.40
2023-05-09T22:55:03.291Z,13.40
2023-05-09T22:57:31.170Z,13.30
2023-05-09T22:59:57.864Z,13.40
2023-05-09T23:02:25.493Z,13.30
2023-05-09T23:04:52.277Z,13.30
2023-05-09T23:07:19.160Z,13.30
2023-05-09T23:09:45.885Z,13.20
2023-05-09T23:12:12.641Z,13.20
2023-05-09T23:14:39.695Z,13.10
2023-05-09T23:17:06.435Z,13.10
2023-05-09T23:19:33.130Z,13.10
2023-05-09T23:21:59.921Z,13.00
2023-05-09T23:24:26.677Z,12.90
2023-05-09T23:26:54.063Z,12.80
2023-05-09T23:29:20.874Z,12.80
2023-05-09T23:31:47.971Z,12.70
2023-05-09T23:34:14.732Z,12.60
2023-05-09T23:36:41.525Z,12.50
2023-05-09T23:39:08.275Z,12.50
2023-05-09T23:41:35.590Z,12.50
2023-05-09T23:44:03.287Z,12.40
2023-05-09T23:46:30.468Z,12.40
2023-05-09T23:48:57.240Z,12.30
2023-05-09T23:51:24.180Z,12.30
2023-05-09T23:53:51.131Z,12.20
2023-05-09T23:56:17.935Z,12.20
2023-05-09T23:58:44.643Z,12.20
